sensor_id;sensor_type;location;lat;lon;timestamp;pressure;altitude;pressure_sealevel;temperature;humidity
43503;BME280;29098;48.184;16.298;2023-06-22T00:01:01;99680.31;;;21.88;100.00
43503;BME280;29098;48.184;16.298;2023-06-22T00:03:27;99661.63;;;21.54;100.00
43503;BME280;29098;48.184;16.298;2023-06-22T00:05:53;99672.31;;;21.71;100.00
43503;BME280;29098;48.184;16.298;2023-06-22T00:08:19;99677.75;;;21.59;100.00
43503;BME280;29098;48.184;16.298;2023-06-22T00:10:45;99672.34;;;21.54;100.00
43503;BME280;29098;48.184;16.298;2023-06-22T00:13:12;99693.63;;;21.44;100.00
43503;BME280;29098;48.184;16.298;2023-06-22T00:15:39;99664.63;;;21.58;100.00
43503;BME280;29098;48.184;16.298;2023-06-22T00:18:09;99669.06;;;21.52;100.00
43503;BME280;29098;48.184;16.298;2023-06-22T00:20:37;99661.78;;;21.47;100.00
43503;BME280;29098;48.184;16.298;2023-06-22T00:23:05;99660.38;;;21.45;100.00
43503;BME280;29098;48.184;16.298;2023-06-22T00:25:40;99642.41;;;21.62;100.00
43503;BME280;29098;48.184;16.298;2023-06-22T00:28:06;99670.97;;;21.69;100.00
43503;BME280;29098;48.184;16.298;2023-06-22T00:30:33;99659.28;;;21.41;100.00
43503;BME280;29098;48.184;16.298;2023-06-22T00:32:59;99627.84;;;21.19;100.00
43503;BME280;29098;48.184;16.298;2023-06-22T00:35:24;99642.31;;;21.35;100.00
43503;BME280;29098;48.184;16.298;2023-06-22T00:37:58;99620.88;;;21.01;100.00
43503;BME280;29098;48.184;16.298;2023-06-22T00:40:32;99655.38;;;21.31;100.00
43503;BME280;29098;48.184;16.298;2023-06-22T00:42:58;99619.56;;;21.03;100.00
43503;BME280;29098;48.184;16.298;2023-06-22T00:45:24;99654.00;;;21.12;100.00
43503;BME280;29098;48.184;16.298;2023-06-22T00:47:55;99598.56;;;20.95;100.00
43503;BME280;29098;48.184;16.298;2023-06-22T00:50:24;99622.34;;;21.08;100.00
43503;BME280;29098;48.184;16.298;2023-06-22T00:52:55;99641.66;;;21.11;100.00
43503;BME280;29098;48.184;16.298;2023-06-22T00:55:24;99604.31;;;21.04;100.00
43503;BME280;29098;48.184;16.298;2023-06-22T00:57:51;99623.31;;;21.02;100.00
43503;BME280;29098;48.184;16.298;2023-06-22T01:00:21;99630.69;;;20.95;100.00
43503;BME280;29098;48.184;16.298;2023-06-22T01:02:53;99610.25;;;20.89;100.00
43503;BME280;29098;48.184;16.298;2023-06-22T01:05:19;99620.22;;;21.11;100.00
43503;BME280;29098;48.184;16.298;2023-06-22T01:13:16;99606.66;;;20.83;100.00
43503;BME280;29098;48.184;16.298;2023-06-22T01:15:44;99620.88;;;21.01;100.00
43503;BME280;29098;48.184;16.298;2023-06-22T01:18:12;99596.97;;;20.82;100.00
43503;BME280;29098;48.184;16.298;2023-06-22T01:20:38;99642.97;;;21.08;100.00
43503;BME280;29098;48.184;16.298;2023-06-22T01:23:17;99595.50;;;20.57;100.00
43503;BME280;29098;48.184;16.298;2023-06-22T01:26:05;99634.63;;;20.75;100.00
43503;BME280;29098;48.184;16.298;2023-06-22T01:28:45;99596.28;;;20.40;100.00
43503;BME280;29098;48.184;16.298;2023-06-22T01:31:12;99580.88;;;20.31;100.00
43503;BME280;29098;48.184;16.298;2023-06-22T01:33:42;99600.59;;;20.42;100.00
43503;BME280;29098;48.184;16.298;2023-06-22T01:36:08;99638.03;;;20.71;100.00
43503;BME280;29098;48.184;16.298;2023-06-22T01:38:38;99618.78;;;20.57;100.00
43503;BME280;29098;48.184;16.298;2023-06-22T01:41:04;99625.06;;;20.79;100.00
43503;BME280;29098;48.184;16.298;2023-06-22T01:43:31;99639.97;;;20.58;100.00
43503;BME280;29098;48.184;16.298;2023-06-22T01:46:01;99643.19;;;20.43;100.00
43503;BME280;29098;48.184;16.298;2023-06-22T01:48:27;99634.09;;;20.44;100.00
43503;BME280;29098;48.184;16.298;2023-06-22T01:50:54;99626.00;;;20.39;100.00
43503;BME280;29098;48.184;16.298;2023-06-22T01:53:24;99588.31;;;20.29;100.00
43503;BME280;29098;48.184;16.298;2023-06-22T01:55:49;99631.56;;;20.37;100.00
43503;BME280;29098;48.184;16.298;2023-06-22T01:58:15;99603.13;;;20.19;100.00
43503;BME280;29098;48.184;16.298;2023-06-22T02:00:45;99588.47;;;20.22;100.00
43503;BME280;29098;48.184;16.298;2023-06-22T02:03:18;99609.53;;;20.18;100.00
43503;BME280;29098;48.184;16.298;2023-06-22T02:05:55;99610.69;;;20.22;100.00
43503;BME280;29098;48.184;16.298;2023-06-22T02:08:29;99595.88;;;20.32;100.00
43503;BME280;29098;48.184;16.298;2023-06-22T02:10:56;99638.13;;;20.30;100.00
43503;BME280;29098;48.184;16.298;2023-06-22T02:13:24;99579.44;;;20.11;100.00
43503;BME280;29098;48.184;16.298;2023-06-22T02:15:50;99646.59;;;20.38;100.00
43503;BME280;29098;48.184;16.298;2023-06-22T02:18:16;99623.41;;;20.15;100.00
43503;BME280;29098;48.184;16.298;2023-06-22T02:20:41;99581.31;;;20.10;100.00
43503;BME280;29098;48.184;16.298;2023-06-22T02:23:07;99631.63;;;20.25;100.00
43503;BME280;29098;48.184;16.298;2023-06-22T02:25:33;99583.94;;;20.22;100.00
43503;BME280;29098;48.184;16.298;2023-06-22T02:27:59;99636.31;;;20.18;100.00
43503;BME280;29098;48.184;16.298;2023-06-22T02:30:24;99641.75;;;20.23;100.00
43503;BME280;29098;48.184;16.298;2023-06-22T02:32:50;99634.41;;;20.31;100.00
43503;BME280;29098;48.184;16.298;2023-06-22T02:35:23;99633.53;;;20.13;100.00
43503;BME280;29098;48.184;16.298;2023-06-22T02:37:49;99563.81;;;19.79;100.00
43503;BME280;29098;48.184;16.298;2023-06-22T02:40:17;99611.09;;;20.02;100.00
43503;BME280;29098;48.184;16.298;2023-06-22T02:42:43;99607.97;;;20.05;100.00
43503;BME280;29098;48.184;16.298;2023-06-22T02:45:08;99604.00;;;20.08;100.00
43503;BME280;29098;48.184;16.298;2023-06-22T02:47:34;99617.63;;;20.06;100.00
43503;BME280;29098;48.184;16.298;2023-06-22T02:50:00;99621.69;;;20.09;100.00
43503;BME280;29098;48.184;16.298;2023-06-22T02:52:27;99589.84;;;19.95;100.00
43503;BME280;29098;48.184;16.298;2023-06-22T02:54:53;99633.00;;;19.99;100.00
43503;BME280;29098;48.184;16.298;2023-06-22T02:57:18;99602.41;;;19.95;100.00
43503;BME280;29098;48.184;16.298;2023-06-22T02:59:44;99567.28;;;19.79;100.00
43503;BME280;29098;48.184;16.298;2023-06-22T03:02:09;99623.00;;;19.94;100.00
43503;BME280;29098;48.184;16.298;2023-06-22T03:04:36;99582.88;;;19.82;100.00
43503;BME280;29098;48.184;16.298;2023-06-22T03:07:02;99625.78;;;19.88;100.00
43503;BME280;29098;48.184;16.298;2023-06-22T03:09:28;99621.72;;;19.85;100.00
43503;BME280;29098;48.184;16.298;2023-06-22T03:11:54;99567.44;;;19.73;100.00
43503;BME280;29098;48.184;16.298;2023-06-22T03:14:20;99610.63;;;20.05;100.00
43503;BME280;29098;48.184;16.298;2023-06-22T03:16:45;99579.50;;;19.87;100.00
43503;BME280;29098;48.184;16.298;2023-06-22T03:19:11;99570.63;;;19.87;100.00
43503;BME280;29098;48.184;16.298;2023-06-22T03:21:39;99613.59;;;19.80;100.00
43503;BME280;29098;48.184;16.298;2023-06-22T03:24:08;99594.53;;;19.64;100.00
43503;BME280;29098;48.184;16.298;2023-06-22T03:26:35;99588.25;;;19.70;100.00
43503;BME280;29098;48.184;16.298;2023-06-22T03:29:01;99608.81;;;19.70;100.00
43503;BME280;29098;48.184;16.298;2023-06-22T03:31:26;99579.75;;;19.74;100.00
43503;BME280;29098;48.184;16.298;2023-06-22T03:33:52;99627.31;;;19.71;100.00
43503;BME280;29098;48.184;16.298;2023-06-22T03:36:18;99620.56;;;19.81;100.00
43503;BME280;29098;48.184;16.298;2023-06-22T03:38:48;99587.81;;;19.62;100.00
43503;BME280;29098;48.184;16.298;2023-06-22T03:41:14;99629.88;;;19.66;100.00
43503;BME280;29098;48.184;16.298;2023-06-22T03:43:39;99637.81;;;19.61;100.00
43503;BME280;29098;48.184;16.298;2023-06-22T03:46:05;99571.44;;;19.46;100.00
43503;BME280;29098;48.184;16.298;2023-06-22T03:48:31;99583.50;;;19.61;100.00
43503;BME280;29098;48.184;16.298;2023-06-22T03:50:56;99609.16;;;19.74;100.00
43503;BME280;29098;48.184;16.298;2023-06-22T03:53:22;99640.81;;;19.77;100.00
43503;BME280;29098;48.184;16.298;2023-06-22T03:55:49;99614.06;;;19.77;100.00
43503;BME280;29098;48.184;16.298;2023-06-22T03:58:15;99631.81;;;19.83;100.00
43503;BME280;29098;48.184;16.298;2023-06-22T04:00:41;99583.28;;;19.62;100.00
43503;BME280;29098;48.184;16.298;2023-06-22T04:03:06;99624.97;;;19.87;100.00
43503;BME280;29098;48.184;16.298;2023-06-22T04:05:32;99605.19;;;19.88;100.00
43503;BME280;29098;48.184;16.298;2023-06-22T04:07:58;99567.50;;;19.90;100.00
43503;BME280;29098;48.184;16.298;2023-06-22T04:10:23;99565.59;;;19.73;100.00
43503;BME280;29098;48.184;16.298;2023-06-22T04:12:49;99618.34;;;19.90;100.00
43503;BME280;29098;48.184;16.298;2023-06-22T04:15:14;99611.94;;;19.91;100.00
43503;BME280;29098;48.184;16.298;2023-06-22T04:17:40;99554.53;;;19.69;100.00
43503;BME280;29098;48.184;16.298;2023-06-22T04:20:06;99592.06;;;19.75;100.00
43503;BME280;29098;48.184;16.298;2023-06-22T04:22:32;99606.13;;;19.82;100.00
43503;BME280;29098;48.184;16.298;2023-06-22T04:24:57;99602.28;;;20.02;100.00
43503;BME280;29098;48.184;16.298;2023-06-22T04:27:23;99584.41;;;20.19;100.00
43503;BME280;29098;48.184;16.298;2023-06-22T04:29:48;99569.78;;;20.10;100.00
43503;BME280;29098;48.184;16.298;2023-06-22T04:32:17;99534.00;;;19.87;100.00
43503;BME280;29098;48.184;16.298;2023-06-22T04:34:43;99563.59;;;20.09;100.00
43503;BME280;29098;48.184;16.298;2023-06-22T04:37:09;99569.22;;;20.08;100.00
43503;BME280;29098;48.184;16.298;2023-06-22T04:39:34;99582.88;;;19.94;100.00
43503;BME280;29098;48.184;16.298;2023-06-22T04:42:01;99610.06;;;20.32;100.00
43503;BME280;29098;48.184;16.298;2023-06-22T04:44:26;99596.00;;;20.25;100.00
43503;BME280;29098;48.184;16.298;2023-06-22T04:46:57;99576.13;;;20.21;100.00
43503;BME280;29098;48.184;16.298;2023-06-22T04:49:27;99561.25;;;20.13;100.00
43503;BME280;29098;48.184;16.298;2023-06-22T04:52:02;99591.97;;;20.39;100.00
43503;BME280;29098;48.184;16.298;2023-06-22T04:54:28;99582.00;;;20.35;100.00
43503;BME280;29098;48.184;16.298;2023-06-22T04:56:54;99594.53;;;20.46;100.00
43503;BME280;29098;48.184;16.298;2023-06-22T04:59:27;99606.69;;;20.54;100.00
43503;BME280;29098;48.184;16.298;2023-06-22T05:01:56;99572.34;;;20.34;100.00
43503;BME280;29098;48.184;16.298;2023-06-22T05:04:22;99605.31;;;20.51;100.00
43503;BME280;29098;48.184;16.298;2023-06-22T05:06:51;99619.84;;;20.56;100.00
43503;BME280;29098;48.184;16.298;2023-06-22T05:09:17;99578.47;;;20.46;100.00
43503;BME280;29098;48.184;16.298;2023-06-22T05:11:46;99596.44;;;20.34;100.00
43503;BME280;29098;48.184;16.298;2023-06-22T05:14:11;99625.03;;;20.45;100.00
43503;BME280;29098;48.184;16.298;2023-06-22T05:16:37;99579.59;;;20.50;100.00
43503;BME280;29098;48.184;16.298;2023-06-22T05:19:03;99636.84;;;20.78;100.00
43503;BME280;29098;48.184;16.298;2023-06-22T05:21:29;99599.25;;;20.73;100.00
43503;BME280;29098;48.184;16.298;2023-06-22T05:23:56;99641.97;;;20.80;100.00
43503;BME280;29098;48.184;16.298;2023-06-22T05:26:28;99606.88;;;20.81;100.00
43503;BME280;29098;48.184;16.298;2023-06-22T05:28:54;99637.78;;;21.01;100.00
43503;BME280;29098;48.184;16.298;2023-06-22T05:31:20;99609.19;;;20.90;100.00
43503;BME280;29098;48.184;16.298;2023-06-22T05:33:46;99627.72;;;21.08;100.00
43503;BME280;29098;48.184;16.298;2023-06-22T05:36:12;99633.28;;;21.24;100.00
43503;BME280;29098;48.184;16.298;2023-06-22T05:38:38;99625.72;;;21.21;100.00
43503;BME280;29098;48.184;16.298;2023-06-22T05:41:04;99570.69;;;21.13;100.00
43503;BME280;29098;48.184;16.298;2023-06-22T05:43:30;99619.16;;;21.29;100.00
43503;BME280;29098;48.184;16.298;2023-06-22T05:45:55;99612.38;;;21.43;100.00
43503;BME280;29098;48.184;16.298;2023-06-22T05:48:21;99623.09;;;21.43;100.00
43503;BME280;29098;48.184;16.298;2023-06-22T05:50:47;99585.69;;;21.54;100.00
43503;BME280;29098;48.184;16.298;2023-06-22T05:53:12;99578.72;;;21.53;100.00
43503;BME280;29098;48.184;16.298;2023-06-22T05:55:38;99562.63;;;21.53;100.00
43503;BME280;29098;48.184;16.298;2023-06-22T05:58:03;99566.66;;;21.72;100.00
43503;BME280;29098;48.184;16.298;2023-06-22T06:00:29;99583.16;;;21.86;100.00
43503;BME280;29098;48.184;16.298;2023-06-22T06:02:55;99637.56;;;22.04;100.00
43503;BME280;29098;48.184;16.298;2023-06-22T06:05:20;99629.66;;;22.14;100.00
43503;BME280;29098;48.184;16.298;2023-06-22T06:07:46;99635.88;;;22.20;100.00
43503;BME280;29098;48.184;16.298;2023-06-22T06:10:12;99604.75;;;22.24;100.00
43503;BME280;29098;48.184;16.298;2023-06-22T06:12:37;99607.72;;;22.23;100.00
43503;BME280;29098;48.184;16.298;2023-06-22T06:15:04;99608.56;;;22.28;100.00
43503;BME280;29098;48.184;16.298;2023-06-22T06:17:30;99597.31;;;22.31;100.00
43503;BME280;29098;48.184;16.298;2023-06-22T06:19:55;99631.66;;;22.52;100.00
43503;BME280;29098;48.184;16.298;2023-06-22T06:22:21;99638.44;;;22.60;100.00
43503;BME280;29098;48.184;16.298;2023-06-22T06:24:49;99647.16;;;22.72;99.65
43503;BME280;29098;48.184;16.298;2023-06-22T06:27:15;99623.13;;;22.60;98.84
43503;BME280;29098;48.184;16.298;2023-06-22T06:29:43;99636.84;;;22.64;98.32
43503;BME280;29098;48.184;16.298;2023-06-22T06:32:11;99614.09;;;22.71;97.46
43503;BME280;29098;48.184;16.298;2023-06-22T06:34:36;99621.91;;;22.73;98.52
43503;BME280;29098;48.184;16.298;2023-06-22T06:37:01;99647.00;;;22.84;98.54
43503;BME280;29098;48.184;16.298;2023-06-22T06:39:27;99631.97;;;22.88;98.80
43503;BME280;29098;48.184;16.298;2023-06-22T06:41:52;99647.91;;;23.00;98.58
43503;BME280;29098;48.184;16.298;2023-06-22T06:44:18;99616.38;;;22.85;99.12
43503;BME280;29098;48.184;16.298;2023-06-22T06:46:43;99622.44;;;23.08;98.29
43503;BME280;29098;48.184;16.298;2023-06-22T06:49:09;99613.00;;;23.05;98.62
43503;BME280;29098;48.184;16.298;2023-06-22T06:51:34;99583.66;;;22.98;97.67
43503;BME280;29098;48.184;16.298;2023-06-22T06:53:59;99598.78;;;23.10;98.01
43503;BME280;29098;48.184;16.298;2023-06-22T06:56:25;99597.28;;;23.24;97.00
43503;BME280;29098;48.184;16.298;2023-06-22T06:58:51;99625.09;;;23.40;97.62
43503;BME280;29098;48.184;16.298;2023-06-22T07:01:16;99614.56;;;23.34;98.06
43503;BME280;29098;48.184;16.298;2023-06-22T07:03:42;99616.72;;;23.37;97.78
43503;BME280;29098;48.184;16.298;2023-06-22T07:06:08;99585.81;;;23.39;98.15
43503;BME280;29098;48.184;16.298;2023-06-22T07:08:34;99600.16;;;23.56;97.59
43503;BME280;29098;48.184;16.298;2023-06-22T07:11:01;99560.00;;;23.44;97.33
43503;BME280;29098;48.184;16.298;2023-06-22T07:13:26;99563.28;;;23.56;97.58
43503;BME280;29098;48.184;16.298;2023-06-22T07:15:52;99603.22;;;23.80;95.33
43503;BME280;29098;48.184;16.298;2023-06-22T07:18:17;99615.91;;;23.95;95.81
43503;BME280;29098;48.184;16.298;2023-06-22T07:20:43;99576.59;;;23.94;94.76
43503;BME280;29098;48.184;16.298;2023-06-22T07:23:08;99609.50;;;24.06;95.02
43503;BME280;29098;48.184;16.298;2023-06-22T07:25:34;99604.66;;;24.14;97.40
43503;BME280;29098;48.184;16.298;2023-06-22T07:28:04;99601.44;;;24.12;95.92
43503;BME280;29098;48.184;16.298;2023-06-22T07:30:31;99600.94;;;24.25;94.17
43503;BME280;29098;48.184;16.298;2023-06-22T07:32:58;99593.41;;;24.27;94.13
43503;BME280;29098;48.184;16.298;2023-06-22T07:35:24;99599.06;;;24.31;93.17
43503;BME280;29098;48.184;16.298;2023-06-22T07:37:59;99589.09;;;24.31;95.15
43503;BME280;29098;48.184;16.298;2023-06-22T07:40:24;99601.25;;;24.44;93.93
43503;BME280;29098;48.184;16.298;2023-06-22T07:42:50;99590.72;;;24.43;93.34
43503;BME280;29098;48.184;16.298;2023-06-22T07:45:17;99597.19;;;24.47;92.96
43503;BME280;29098;48.184;16.298;2023-06-22T07:47:42;99597.19;;;24.68;93.89
43503;BME280;29098;48.184;16.298;2023-06-22T07:50:08;99575.34;;;24.64;94.16
43503;BME280;29098;48.184;16.298;2023-06-22T07:52:34;99587.50;;;24.72;94.72
43503;BME280;29098;48.184;16.298;2023-06-22T07:55:01;99594.00;;;24.92;93.01
43503;BME280;29098;48.184;16.298;2023-06-22T07:57:28;99583.22;;;24.92;92.46
43503;BME280;29098;48.184;16.298;2023-06-22T08:00:03;99567.00;;;25.07;92.25
43503;BME280;29098;48.184;16.298;2023-06-22T08:02:38;99550.25;;;25.10;91.34
43503;BME280;29098;48.184;16.298;2023-06-22T08:05:04;99599.88;;;25.25;91.30
43503;BME280;29098;48.184;16.298;2023-06-22T08:07:32;99580.38;;;25.43;90.94
43503;BME280;29098;48.184;16.298;2023-06-22T08:09:58;99568.25;;;25.51;90.43
43503;BME280;29098;48.184;16.298;2023-06-22T08:12:24;99595.72;;;25.64;90.37
43503;BME280;29098;48.184;16.298;2023-06-22T08:14:49;99596.97;;;25.82;90.04
43503;BME280;29098;48.184;16.298;2023-06-22T08:17:15;99578.66;;;25.74;89.04
43503;BME280;29098;48.184;16.298;2023-06-22T08:19:40;99584.59;;;25.76;89.41
43503;BME280;29098;48.184;16.298;2023-06-22T08:22:06;99575.38;;;25.82;89.94
43503;BME280;29098;48.184;16.298;2023-06-22T08:24:31;99593.69;;;25.90;89.08
43503;BME280;29098;48.184;16.298;2023-06-22T08:26:57;99583.88;;;26.10;87.84
43503;BME280;29098;48.184;16.298;2023-06-22T08:29:22;99596.25;;;26.16;87.56
43503;BME280;29098;48.184;16.298;2023-06-22T08:31:48;99607.06;;;26.16;87.10
43503;BME280;29098;48.184;16.298;2023-06-22T08:34:13;99604.09;;;26.23;85.95
43503;BME280;29098;48.184;16.298;2023-06-22T08:36:39;99586.25;;;26.17;86.24
43503;BME280;29098;48.184;16.298;2023-06-22T08:39:10;99585.72;;;26.15;85.93
43503;BME280;29098;48.184;16.298;2023-06-22T08:41:35;99592.44;;;26.28;83.90
43503;BME280;29098;48.184;16.298;2023-06-22T08:44:01;99588.94;;;26.27;84.91
43503;BME280;29098;48.184;16.298;2023-06-22T08:46:26;99571.38;;;26.24;84.77
43503;BME280;29098;48.184;16.298;2023-06-22T08:48:56;99549.53;;;26.10;83.18
43503;BME280;29098;48.184;16.298;2023-06-22T08:51:23;99580.50;;;26.34;82.00
43503;BME280;29098;48.184;16.298;2023-06-22T08:53:48;99589.44;;;26.34;82.96
43503;BME280;29098;48.184;16.298;2023-06-22T08:56:13;99590.69;;;26.47;79.42
43503;BME280;29098;48.184;16.298;2023-06-22T08:58:41;99555.66;;;26.32;78.74
43503;BME280;29098;48.184;16.298;2023-06-22T09:01:07;99555.66;;;26.32;78.80
43503;BME280;29098;48.184;16.298;2023-06-22T09:03:32;99548.16;;;26.23;80.03
43503;BME280;29098;48.184;16.298;2023-06-22T09:06:00;99537.28;;;26.29;81.77
43503;BME280;29098;48.184;16.298;2023-06-22T09:08:25;99570.69;;;26.43;80.64
43503;BME280;29098;48.184;16.298;2023-06-22T09:10:50;99562.56;;;26.48;79.16
43503;BME280;29098;48.184;16.298;2023-06-22T09:13:16;99547.72;;;26.40;79.37
43503;BME280;29098;48.184;16.298;2023-06-22T09:15:44;99542.41;;;26.65;78.22
43503;BME280;29098;48.184;16.298;2023-06-22T09:18:13;99574.19;;;26.78;76.34
43503;BME280;29098;48.184;16.298;2023-06-22T09:20:39;99562.19;;;26.90;75.77
43503;BME280;29098;48.184;16.298;2023-06-22T09:23:04;99559.66;;;27.04;73.23
43503;BME280;29098;48.184;16.298;2023-06-22T09:25:30;99555.06;;;26.99;73.55
43503;BME280;29098;48.184;16.298;2023-06-22T09:27:55;99560.72;;;27.03;72.89
43503;BME280;29098;48.184;16.298;2023-06-22T09:30:21;99554.91;;;27.15;74.65
43503;BME280;29098;48.184;16.298;2023-06-22T09:32:47;99552.50;;;27.13;73.07
43503;BME280;29098;48.184;16.298;2023-06-22T09:35:12;99545.81;;;27.30;75.04
43503;BME280;29098;48.184;16.298;2023-06-22T09:37:39;99545.56;;;27.51;72.61
43503;BME280;29098;48.184;16.298;2023-06-22T09:40:06;99551.28;;;27.49;74.38
43503;BME280;29098;48.184;16.298;2023-06-22T09:42:35;99546.84;;;27.58;75.80
43503;BME280;29098;48.184;16.298;2023-06-22T09:45:00;99537.44;;;27.51;76.13
43503;BME280;29098;48.184;16.298;2023-06-22T09:47:27;99538.00;;;27.72;76.54
43503;BME280;29098;48.184;16.298;2023-06-22T09:49:52;99527.88;;;27.58;76.21
43503;BME280;29098;48.184;16.298;2023-06-22T09:52:20;99542.91;;;27.70;75.54
43503;BME280;29098;48.184;16.298;2023-06-22T09:54:45;99501.84;;;27.62;76.23
43503;BME280;29098;48.184;16.298;2023-06-22T09:57:11;99507.84;;;27.79;76.56
43503;BME280;29098;48.184;16.298;2023-06-22T09:59:36;99543.44;;;27.91;74.34
43503;BME280;29098;48.184;16.298;2023-06-22T10:02:02;99516.81;;;28.12;72.65
43503;BME280;29098;48.184;16.298;2023-06-22T10:04:27;99510.53;;;27.98;70.66
43503;BME280;29098;48.184;16.298;2023-06-22T10:06:53;99530.09;;;28.14;70.91
43503;BME280;29098;48.184;16.298;2023-06-22T10:09:18;99537.72;;;28.31;70.91
43503;BME280;29098;48.184;16.298;2023-06-22T10:11:44;99526.13;;;28.25;70.88
43503;BME280;29098;48.184;16.298;2023-06-22T10:14:09;99537.53;;;28.41;68.88
43503;BME280;29098;48.184;16.298;2023-06-22T10:16:36;99507.97;;;28.26;68.00
43503;BME280;29098;48.184;16.298;2023-06-22T10:19:02;99519.16;;;28.38;70.35
43503;BME280;29098;48.184;16.298;2023-06-22T10:21:27;99538.88;;;28.58;69.16
43503;BME280;29098;48.184;16.298;2023-06-22T10:23:54;99512.88;;;28.57;70.21
43503;BME280;29098;48.184;16.298;2023-06-22T10:26:20;99521.91;;;28.52;68.79
43503;BME280;29098;48.184;16.298;2023-06-22T10:28:48;99501.94;;;28.62;70.54
43503;BME280;29098;48.184;16.298;2023-06-22T10:31:13;99523.88;;;28.94;67.14
43503;BME280;29098;48.184;16.298;2023-06-22T10:33:39;99531.31;;;28.88;65.92
43503;BME280;29098;48.184;16.298;2023-06-22T10:36:06;99501.88;;;28.95;66.39
43503;BME280;29098;48.184;16.298;2023-06-22T10:38:32;99502.28;;;29.03;63.09
43503;BME280;29098;48.184;16.298;2023-06-22T10:40:57;99515.97;;;29.11;63.75
43503;BME280;29098;48.184;16.298;2023-06-22T10:43:23;99496.84;;;29.03;60.92
43503;BME280;29098;48.184;16.298;2023-06-22T10:45:48;99532.31;;;29.20;63.07
43503;BME280;29098;48.184;16.298;2023-06-22T10:48:13;99495.53;;;29.14;61.15
43503;BME280;29098;48.184;16.298;2023-06-22T10:50:39;99486.53;;;29.42;62.54
43503;BME280;29098;48.184;16.298;2023-06-22T10:53:04;99526.19;;;29.57;61.88
43503;BME280;29098;48.184;16.298;2023-06-22T10:55:37;99494.81;;;29.50;59.87
43503;BME280;29098;48.184;16.298;2023-06-22T10:58:02;99520.03;;;29.65;58.89
43503;BME280;29098;48.184;16.298;2023-06-22T11:00:28;99481.19;;;29.64;58.02
43503;BME280;29098;48.184;16.298;2023-06-22T11:02:55;99494.50;;;29.89;59.75
43503;BME280;29098;48.184;16.298;2023-06-22T11:05:23;99477.38;;;29.88;60.07
43503;BME280;29098;48.184;16.298;2023-06-22T11:07:49;99464.84;;;30.01;58.72
43503;BME280;29098;48.184;16.298;2023-06-22T11:10:16;99445.47;;;29.94;58.70
43503;BME280;29098;48.184;16.298;2023-06-22T11:12:42;99488.38;;;30.06;58.59
43503;BME280;29098;48.184;16.298;2023-06-22T11:15:08;99450.63;;;30.04;57.86
43503;BME280;29098;48.184;16.298;2023-06-22T11:17:34;99472.75;;;30.34;58.59
43503;BME280;29098;48.184;16.298;2023-06-22T11:20:00;99477.03;;;30.58;59.83
43503;BME280;29098;48.184;16.298;2023-06-22T11:22:26;99446.09;;;30.45;57.17
43503;BME280;29098;48.184;16.298;2023-06-22T11:24:52;99434.97;;;30.65;55.13
43503;BME280;29098;48.184;16.298;2023-06-22T11:27:17;99443.69;;;30.75;57.81
43503;BME280;29098;48.184;16.298;2023-06-22T11:29:43;99474.94;;;30.96;57.57
43503;BME280;29098;48.184;16.298;2023-06-22T11:32:08;99480.34;;;30.87;56.10
43503;BME280;29098;48.184;16.298;2023-06-22T11:34:35;99438.75;;;30.86;56.18
43503;BME280;29098;48.184;16.298;2023-06-22T11:37:01;99468.03;;;30.89;54.27
43503;BME280;29098;48.184;16.298;2023-06-22T11:39:26;99465.53;;;31.02;55.88
43503;BME280;29098;48.184;16.298;2023-06-22T11:41:52;99469.06;;;31.11;56.39
43503;BME280;29098;48.184;16.298;2023-06-22T11:44:18;99467.13;;;31.03;55.45
43503;BME280;29098;48.184;16.298;2023-06-22T11:46:43;99461.69;;;31.03;55.65
43503;BME280;29098;48.184;16.298;2023-06-22T11:49:08;99426.44;;;30.98;55.50
43503;BME280;29098;48.184;16.298;2023-06-22T11:51:34;99432.34;;;30.91;55.29
43503;BME280;29098;48.184;16.298;2023-06-22T11:53:59;99465.25;;;31.30;56.39
43503;BME280;29098;48.184;16.298;2023-06-22T11:56:25;99436.38;;;31.11;54.13
43503;BME280;29098;48.184;16.298;2023-06-22T11:58:50;99429.84;;;31.21;56.74
43503;BME280;29098;48.184;16.298;2023-06-22T12:01:16;99435.97;;;31.27;56.15
43503;BME280;29098;48.184;16.298;2023-06-22T12:03:41;99455.81;;;31.36;55.47
43503;BME280;29098;48.184;16.298;2023-06-22T12:06:09;99438.69;;;31.44;54.23
43503;BME280;29098;48.184;16.298;2023-06-22T12:08:34;99432.28;;;31.58;55.90
43503;BME280;29098;48.184;16.298;2023-06-22T12:10:59;99432.28;;;31.67;54.00
43503;BME280;29098;48.184;16.298;2023-06-22T12:13:25;99425.53;;;31.55;53.86
43503;BME280;29098;48.184;16.298;2023-06-22T12:15:50;99435.00;;;31.67;54.10
43503;BME280;29098;48.184;16.298;2023-06-22T12:18:17;99458.56;;;31.89;53.79
43503;BME280;29098;48.184;16.298;2023-06-22T12:20:45;99447.47;;;32.03;53.72
43503;BME280;29098;48.184;16.298;2023-06-22T12:23:11;99436.88;;;32.10;53.35
43503;BME280;29098;48.184;16.298;2023-06-22T12:25:36;99413.59;;;32.13;53.59
43503;BME280;29098;48.184;16.298;2023-06-22T12:28:02;99425.66;;;32.03;52.20
43503;BME280;29098;48.184;16.298;2023-06-22T12:30:32;99444.91;;;32.07;52.03
43503;BME280;29098;48.184;16.298;2023-06-22T12:32:58;99401.50;;;31.84;52.66
43503;BME280;29098;48.184;16.298;2023-06-22T12:35:24;99404.06;;;31.71;52.87
43503;BME280;29098;48.184;16.298;2023-06-22T12:37:49;99387.72;;;31.71;52.05
43503;BME280;29098;48.184;16.298;2023-06-22T12:40:14;99419.13;;;31.95;51.73
43503;BME280;29098;48.184;16.298;2023-06-22T12:42:40;99420.03;;;32.08;51.12
43503;BME280;29098;48.184;16.298;2023-06-22T12:45:07;99396.00;;;32.02;53.16
43503;BME280;29098;48.184;16.298;2023-06-22T12:47:32;99405.78;;;32.03;51.49